Time;durP1;ratioP1;P1;durP2;ratioP2;P2;SDS_P1;SDS_P2;PMS_P1;PMS_P2;Temp;Humidity;BMP_temperature;BMP_pressure;BME280_temperature;BME280_humidity;BME280_pressure;Samples;Min_cycle;Max_cycle;Signal;HPM_P1;HPM_P2
2024/04/24 00:00:24;;;;;;;6.35;2.17;;;;;;;7.42;100.00;101298.47;4781832;29;20036;-85
2024/04/24 00:03:02;;;;;;;15.90;2.10;;;;;;;7.41;100.00;101299.41;4748570;30;20088;-86
2024/04/24 00:05:30;;;;;;;12.63;3.28;;;;;;;7.32;100.00;101298.25;4769107;30;20054;-89
2024/04/24 00:07:56;;;;;;;9.57;1.98;;;;;;;7.22;100.00;101297.16;4780869;29;20045;-86
2024/04/24 00:10:44;;;;;;;9.05;2.13;;;;;;;7.25;100.00;101300.44;4768536;30;20090;-86
2024/04/24 00:13:16;;;;;;;10.88;2.10;;;;;;;7.15;100.00;101296.72;4764242;30;20489;-88
2024/04/24 00:16:01;;;;;;;10.35;2.28;;;;;;;7.24;100.00;101298.75;4769076;30;20047;-86
2024/04/24 00:18:27;;;;;;;11.32;2.45;;;;;;;7.17;100.00;101300.06;4760091;30;20035;-82
2024/04/24 00:22:12;;;;;;;11.82;2.08;;;;;;;7.15;100.00;101292.28;4697576;30;20044;-82
2024/04/24 00:24:38;;;;;;;9.50;2.22;;;;;;;7.12;100.00;101299.56;4690742;30;20048;-81
2024/04/24 00:27:04;;;;;;;12.23;3.20;;;;;;;7.10;100.00;101291.78;4750029;30;20047;-79
2024/04/24 00:29:39;;;;;;;9.25;2.35;;;;;;;7.16;100.00;101291.38;4764140;30;20097;-83
2024/04/24 00:32:30;;;;;;;13.03;2.47;;;;;;;7.09;100.00;101284.00;4776808;30;20051;-82
2024/04/24 00:34:56;;;;;;;10.18;2.90;;;;;;;7.03;100.00;101286.06;4763481;30;20460;-82
2024/04/24 00:37:21;;;;;;;12.90;2.35;;;;;;;6.97;100.00;101281.22;4760295;30;20047;-81
2024/04/24 00:39:47;;;;;;;10.32;2.60;;;;;;;6.94;100.00;101284.88;4762753;30;20051;-82
2024/04/24 00:42:25;;;;;;;10.18;2.72;;;;;;;6.94;100.00;101276.16;4760747;30;20494;-82
2024/04/24 00:44:55;;;;;;;9.38;2.00;;;;;;;6.89;100.00;101278.22;4793678;29;20116;-79
2024/04/24 00:47:25;;;;;;;10.70;1.77;;;;;;;6.89;100.00;101273.81;4765798;30;20116;-86
2024/04/24 00:50:27;;;;;;;8.77;2.10;;;;;;;6.92;100.00;101276.25;4753302;30;20043;-84
2024/04/24 00:52:53;;;;;;;13.50;2.22;;;;;;;6.89;100.00;101275.59;4705461;30;20119;-81
2024/04/24 00:55:29;;;;;;;21.58;2.15;;;;;;;6.91;100.00;101268.47;4752834;30;20048;-84
2024/04/24 00:57:55;;;;;;;12.88;2.30;;;;;;;6.82;100.00;101265.50;4778385;29;20051;-80
2024/04/24 01:00:35;;;;;;;9.02;2.00;;;;;;;6.85;100.00;101268.88;4775549;30;20031;-83
2024/04/24 01:07:24;;;;;;;18.02;2.65;;;;;;;6.68;100.00;101241.88;4758690;29;20097;-80
2024/04/24 01:09:53;;;;;;;8.80;2.00;;;;;;;6.64;100.00;101243.84;4779625;29;20070;-80
2024/04/24 01:12:57;;;;;;;17.15;1.90;;;;;;;6.65;100.00;101239.47;4786501;29;20047;-85
2024/04/24 01:15:46;;;;;;;11.13;2.25;;;;;;;6.58;100.00;101242.47;4755784;30;20169;-86
2024/04/24 01:22:25;;;;;;;16.48;2.50;;;;;;;6.44;100.00;101232.88;4744693;30;20143;-85
2024/04/24 01:25:08;;;;;;;9.25;1.92;;;;;;;6.45;100.00;101228.44;4763312;30;20043;-85
2024/04/24 01:27:35;;;;;;;15.15;2.67;;;;;;;6.38;100.00;101227.16;4766392;30;20061;-81
2024/04/24 01:31:01;;;;;;;9.93;2.00;;;;;;;6.50;100.00;101229.00;4783033;30;20046;-80
2024/04/24 01:37:58;;;;;;;16.60;2.10;;;;;;;6.54;100.00;101232.28;4755117;30;20402;-84
2024/04/24 01:40:24;;;;;;;9.73;2.45;;;;;;;6.54;100.00;101232.28;4775977;30;20052;-83
2024/04/24 01:43:16;;;;;;;12.15;2.05;;;;;;;6.60;100.00;101221.38;4778394;29;20063;-81
2024/04/24 01:46:19;;;;;;;7.45;2.17;;;;;;;6.60;100.00;101221.38;4777637;30;20051;-81
2024/04/24 01:48:45;;;;;;;9.07;1.98;;;;;;;6.55;100.00;101221.66;4761143;30;20055;-84
2024/04/24 01:51:11;;;;;;;14.75;2.58;;;;;;;6.55;100.00;101224.28;4783114;30;20043;-85
2024/04/24 01:53:37;;;;;;;8.65;2.22;;;;;;;6.49;100.00;101215.97;4783669;29;20130;-84
2024/04/24 01:56:11;;;;;;;12.32;1.85;;;;;;;6.52;100.00;101213.13;4768340;30;20035;-84
2024/04/24 01:58:42;;;;;;;8.50;2.03;;;;;;;6.48;100.00;101203.78;4776691;29;20054;-85
2024/04/24 02:01:34;;;;;;;4.45;1.50;;;;;;;6.50;100.00;101196.66;4767351;29;20089;-84
2024/04/24 02:04:11;;;;;;;13.38;1.92;;;;;;;6.44;100.00;101211.00;4785107;29;20138;-85
2024/04/24 02:07:13;;;;;;;15.23;1.70;;;;;;;6.44;100.00;101211.84;4765984;30;20066;-81
2024/04/24 02:09:41;;;;;;;6.90;1.63;;;;;;;6.37;100.00;101210.53;4735634;30;20051;-81
2024/04/24 02:12:07;;;;;;;12.90;1.98;;;;;;;6.37;100.00;101199.22;4747249;30;20060;-85
2024/04/24 02:14:53;;;;;;;;;;;;;;;6.30;100.00;101194.34;4741784;29;20094;-85
2024/04/24 02:17:19;;;;;;;11.07;2.50;;;;;;;6.25;100.00;101198.19;4778752;29;19918;-85
2024/04/24 02:20:35;;;;;;;9.40;1.70;;;;;;;6.19;100.00;101186.31;4782236;30;20035;-85
2024/04/24 02:23:07;;;;;;;7.50;2.30;;;;;;;6.06;100.00;101176.59;4754197;30;20047;-84
2024/04/24 02:25:34;;;;;;;9.30;1.80;;;;;;;6.00;100.00;101182.19;4769048;30;20039;-84
2024/04/24 02:28:06;;;;;;;14.77;1.88;;;;;;;5.99;100.00;101180.50;4760666;30;20438;-81
2024/04/24 02:30:32;;;;;;;8.25;1.88;;;;;;;5.91;100.00;101172.28;4767615;30;20122;-81
2024/04/24 02:32:58;;;;;;;18.70;2.60;;;;;;;5.91;100.00;101177.53;4779574;29;20042;-83
2024/04/24 02:35:27;;;;;;;8.23;1.98;;;;;;;5.92;100.00;101168.72;4753677;30;20047;-82
2024/04/24 02:37:54;;;;;;;12.73;2.05;;;;;;;5.96;100.00;101172.81;4781045;29;20079;-81
2024/04/24 02:40:19;;;;;;;14.13;2.97;;;;;;;5.94;100.00;101170.28;4750430;29;20067;-81
2024/04/24 02:42:45;;;;;;;9.48;2.25;;;;;;;5.96;100.00;101157.06;4743622;29;20058;-87
2024/04/24 02:45:13;;;;;;;5.50;1.77;;;;;;;6.01;100.00;101147.13;4773028;30;20043;-87
2024/04/24 02:47:52;;;;;;;5.55;1.85;;;;;;;6.12;100.00;101150.88;4761474;30;20051;-87
2024/04/24 02:50:17;;;;;;;6.32;1.65;;;;;;;6.00;100.00;101148.09;4769799;29;20061;-85
2024/04/24 02:52:43;;;;;;;14.45;2.67;;;;;;;5.89;100.00;101140.03;4778628;29;20485;-87
2024/04/24 02:55:09;;;;;;;7.43;2.20;;;;;;;5.84;100.00;101135.09;4786127;29;20047;-85
2024/04/24 02:57:35;;;;;;;7.78;1.70;;;;;;;5.79;100.00;101130.13;4769776;30;20070;-86
2024/04/24 03:00:00;;;;;;;9.68;1.80;;;;;;;5.83;100.00;101130.75;4753191;30;20039;-87
2024/04/24 03:02:26;;;;;;;9.05;1.80;;;;;;;5.77;100.00;101126.75;4785297;29;20417;-85
2024/04/24 03:04:52;;;;;;;10.52;3.00;;;;;;;5.79;100.00;101127.50;4766977;30;20038;-84
2024/04/24 03:07:18;;;;;;;8.52;1.90;;;;;;;5.74;100.00;101126.94;4747346;30;20158;-80
2024/04/24 03:09:43;;;;;;;5.78;1.23;;;;;;;5.70;100.00;101126.28;4775644;29;20050;-81
2024/04/24 03:12:09;;;;;;;6.72;1.73;;;;;;;5.66;100.00;101123.94;4766804;30;20105;-87
2024/04/24 03:14:35;;;;;;;15.50;1.80;;;;;;;5.71;100.00;101124.50;4800022;29;20035;-82
2024/04/24 03:17:01;;;;;;;13.07;2.03;;;;;;;5.71;100.00;101124.50;4784783;29;20509;-86
2024/04/24 03:19:27;;;;;;;11.98;2.70;;;;;;;5.71;100.00;101117.50;4767053;30;20528;-86
2024/04/24 03:21:53;;;;;;;9.77;1.25;;;;;;;5.79;100.00;101119.63;4758143;29;20051;-81
2024/04/24 03:24:19;;;;;;;6.82;1.95;;;;;;;5.79;100.00;101116.16;4770696;30;20040;-81
2024/04/24 03:26:44;;;;;;;7.30;1.40;;;;;;;5.84;100.00;101120.16;4754510;29;20412;-80
2024/04/24 03:29:10;;;;;;;8.93;1.25;;;;;;;5.85;100.00;101113.16;4777758;29;20552;-79
2024/04/24 03:31:36;;;;;;;9.45;1.67;;;;;;;5.88;100.00;101123.44;4758709;30;20063;-87
2024/04/24 03:34:02;;;;;;;7.90;2.17;;;;;;;5.88;100.00;101122.59;4782421;30;20043;-84
2024/04/24 03:36:27;;;;;;;8.85;1.67;;;;;;;5.89;100.00;101117.25;4766911;29;20047;-84
2024/04/24 03:38:55;;;;;;;9.75;2.50;;;;;;;6.00;100.00;101115.75;4772185;29;20491;-85
2024/04/24 03:41:21;;;;;;;10.85;1.50;;;;;;;6.03;100.00;101118.16;4768227;30;20134;-83
2024/04/24 03:43:47;;;;;;;5.85;1.42;;;;;;;6.02;100.00;101108.63;4768628;30;20054;-82
2024/04/24 03:46:13;;;;;;;6.45;1.10;;;;;;;5.99;100.00;101104.38;4684462;30;20071;-83
2024/04/24 03:48:40;;;;;;;7.63;1.63;;;;;;;6.01;100.00;101107.78;4769539;30;20618;-83
2024/04/24 03:51:06;;;;;;;6.00;1.50;;;;;;;6.03;100.00;101105.91;4760087;30;20047;-81
2024/04/24 03:53:31;;;;;;;10.15;1.65;;;;;;;6.01;100.00;101101.66;4770293;29;20452;-80
2024/04/24 03:55:57;;;;;;;6.05;1.58;;;;;;;5.99;100.00;101101.75;4765011;30;20036;-85
2024/04/24 03:58:23;;;;;;;11.15;1.88;;;;;;;5.95;100.00;101101.13;4771868;29;20464;-83
2024/04/24 04:00:49;;;;;;;6.32;1.25;;;;;;;5.96;100.00;101099.34;4785463;30;20051;-85
2024/04/24 04:03:14;;;;;;;4.25;1.77;;;;;;;5.97;100.00;101093.16;4766667;29;20116;-85
2024/04/24 04:05:41;;;;;;;4.88;0.90;;;;;;;5.95;100.00;101097.66;4756241;30;20115;-86
2024/04/24 04:08:06;;;;;;;7.15;1.85;;;;;;;5.94;100.00;101099.44;4752382;29;20112;-81
2024/04/24 04:10:32;;;;;;;5.85;1.60;;;;;;;6.00;100.00;101092.13;4796091;29;20044;-81
2024/04/24 04:12:58;;;;;;;7.90;1.67;;;;;;;6.00;100.00;101085.09;4750640;30;20512;-84
2024/04/24 04:15:24;;;;;;;12.95;2.00;;;;;;;5.98;100.00;101086.13;4730658;30;20163;-81
2024/04/24 04:17:49;;;;;;;6.53;1.38;;;;;;;5.97;100.00;101087.94;4767910;30;20474;-81
2024/04/24 04:20:15;;;;;;;12.45;2.75;;;;;;;5.99;100.00;101080.78;4782455;30;20531;-83
2024/04/24 04:22:42;;;;;;;6.65;1.77;;;;;;;6.03;100.00;101084.91;4795216;29;20405;-84
2024/04/24 04:25:08;;;;;;;11.48;1.83;;;;;;;6.04;100.00;101086.59;4766449;30;20054;-84
2024/04/24 04:27:34;;;;;;;11.65;2.13;;;;;;;6.03;100.00;101081.44;4771083;30;20043;-84
2024/04/24 04:30:00;;;;;;;7.90;1.55;;;;;;;6.01;100.00;101078.91;4770043;29;20042;-83
2024/04/24 04:32:26;;;;;;;10.35;1.52;;;;;;;6.02;100.00;101083.19;4770747;29;20032;-81
2024/04/24 04:34:52;;;;;;;9.77;1.67;;;;;;;6.02;100.00;101085.81;4778507;29;20066;-81
2024/04/24 04:37:18;;;;;;;9.90;1.70;;;;;;;6.05;100.00;101085.66;4761630;30;20035;-82
2024/04/24 04:39:44;;;;;;;8.48;1.83;;;;;;;6.08;100.00;101085.47;4750086;30;20196;-80
2024/04/24 04:42:10;;;;;;;7.97;1.63;;;;;;;6.09;100.00;101075.81;4766123;30;20043;-83
2024/04/24 04:44:36;;;;;;;10.20;1.60;;;;;;;6.16;100.00;101079.72;4744734;30;20515;-84
2024/04/24 04:47:02;;;;;;;10.88;2.10;;;;;;;6.22;100.00;101075.00;4781713;29;20082;-81
2024/04/24 04:49:28;;;;;;;16.27;2.45;;;;;;;6.28;100.00;101070.22;4781312;30;20031;-81
2024/04/24 04:51:53;;;;;;;13.50;2.00;;;;;;;6.37;100.00;101066.13;4750914;30;20063;-84
2024/04/24 04:54:19;;;;;;;5.85;1.50;;;;;;;6.43;100.00;101065.72;4768200;30;20054;-84
2024/04/24 04:56:45;;;;;;;3.45;1.02;;;;;;;6.44;100.00;101063.94;4778189;29;20111;-84
2024/04/24 04:59:11;;;;;;;6.15;1.70;;;;;;;6.42;100.00;101055.31;4761668;30;20043;-85
2024/04/24 05:01:36;;;;;;;6.25;1.40;;;;;;;6.38;100.00;101053.84;4767304;30;20075;-86
2024/04/24 05:04:02;;;;;;;7.20;1.70;;;;;;;6.38;100.00;101057.31;4753133;30;20485;-86
2024/04/24 05:06:28;;;;;;;13.68;1.95;;;;;;;6.32;100.00;101048.03;4757226;30;20405;-81
2024/04/24 05:08:54;;;;;;;8.35;1.80;;;;;;;6.32;100.00;101053.28;4763719;30;20043;-81
2024/04/24 05:11:20;;;;;;;9.48;1.45;;;;;;;6.24;100.00;101052.13;4765224;30;20040;-81
2024/04/24 05:13:46;;;;;;;10.35;1.75;;;;;;;6.21;100.00;101058.44;4778817;29;20659;-80
2024/04/24 05:16:12;;;;;;;9.02;1.55;;;;;;;6.21;100.00;101047.94;4748650;30;20050;-86
2024/04/24 05:18:38;;;;;;;9.90;2.30;;;;;;;6.18;100.00;101048.97;4768972;30;20045;-84
2024/04/24 05:21:06;;;;;;;9.75;1.63;;;;;;;6.22;100.00;101049.59;4781545;30;20039;-86
2024/04/24 05:23:32;;;;;;;5.20;1.63;;;;;;;6.20;100.00;101046.22;4753519;30;20109;-86
2024/04/24 05:25:58;;;;;;;10.55;2.42;;;;;;;6.16;100.00;101040.34;4765791;29;20385;-82
2024/04/24 05:31:08;;;;;;;4.03;1.48;;;;;;;6.12;100.00;101040.63;4763568;29;21659;-84
2024/04/24 05:33:33;;;;;;;5.00;1.52;;;;;;;6.12;100.00;101036.25;4695283;30;20847;-85
2024/04/24 05:36:01;;;;;;;4.10;1.50;;;;;;;6.19;100.00;101045.41;4751027;30;20043;-88
2024/04/24 05:38:27;;;;;;;8.13;1.65;;;;;;;6.17;100.00;101039.41;4778430;29;20047;-87
2024/04/24 05:40:53;;;;;;;6.68;1.73;;;;;;;6.17;100.00;101039.41;4772097;30;20443;-86
2024/04/24 05:43:19;;;;;;;6.70;1.73;;;;;;;6.19;100.00;101034.91;4787959;29;20046;-86
2024/04/24 05:45:45;;;;;;;9.45;1.98;;;;;;;6.19;100.00;101034.06;4773021;29;20070;-84
2024/04/24 05:48:10;;;;;;;9.77;2.20;;;;;;;6.17;100.00;101028.91;4782179;30;20575;-86
2024/04/24 05:50:36;;;;;;;6.13;1.95;;;;;;;6.18;100.00;101033.22;4729138;30;20062;-85
2024/04/24 05:53:02;;;;;;;7.20;1.60;;;;;;;6.28;100.00;101038.69;4751221;29;20042;-85
2024/04/24 05:55:28;;;;;;;8.32;1.85;;;;;;;6.31;100.00;101033.25;4763321;30;20131;-84
2024/04/24 05:57:54;;;;;;;7.32;2.10;;;;;;;6.38;100.00;101032.84;4784696;29;20072;-84
2024/04/24 06:00:19;;;;;;;9.93;1.92;;;;;;;6.49;100.00;101030.34;4758153;30;20683;-85
2024/04/24 06:02:45;;;;;;;8.00;2.15;;;;;;;6.57;100.00;101019.31;4758866;30;20043;-84
2024/04/24 06:05:12;;;;;;;6.50;1.80;;;;;;;6.68;100.00;101023.84;4785247;29;20104;-85
2024/04/24 06:07:38;;;;;;;8.57;1.88;;;;;;;6.74;100.00;101019.94;4751342;30;20046;-80
2024/04/24 06:10:04;;;;;;;8.80;2.17;;;;;;;6.81;100.00;101027.31;4733761;30;20134;-80
2024/04/24 06:12:30;;;;;;;7.15;1.83;;;;;;;6.84;100.00;101018.38;4780184;29;21021;-85
2024/04/24 06:14:55;;;;;;;5.22;1.95;;;;;;;6.89;100.00;101020.69;4769733;29;20040;-86
2024/04/24 06:17:21;;;;;;;12.35;2.47;;;;;;;6.94;100.00;101019.41;4752894;30;20567;-84
2024/04/24 06:19:47;;;;;;;5.40;2.00;;;;;;;6.95;100.00;101025.53;4761285;30;20043;-86
2024/04/24 06:22:13;;;;;;;8.32;2.08;;;;;;;6.94;100.00;101023.84;4770431;29;20105;-84
2024/04/24 06:24:39;;;;;;;9.93;2.33;;;;;;;6.96;100.00;101024.56;4747762;30;20088;-85
2024/04/24 06:27:04;;;;;;;8.02;1.98;;;;;;;6.96;100.00;101021.94;4751538;29;20596;-86
2024/04/24 06:29:31;;;;;;;7.95;2.10;;;;;;;7.00;100.00;101026.03;4750471;30;20046;-85
2024/04/24 06:31:57;;;;;;;7.85;2.22;;;;;;;6.95;100.00;101021.09;4778989;29;20113;-87
2024/04/24 06:34:23;;;;;;;7.70;2.03;;;;;;;6.90;100.00;101019.72;4752454;29;20035;-89
2024/04/24 06:36:49;;;;;;;12.25;1.73;;;;;;;6.98;100.00;101024.44;4764612;30;20098;-85
2024/04/24 06:39:15;;;;;;;7.13;2.33;;;;;;;6.95;100.00;101015.00;4762793;30;20398;-84
2024/04/24 06:41:40;;;;;;;13.02;2.65;;;;;;;6.97;100.00;101014.91;4780590;29;20039;-81
2024/04/24 06:44:06;;;;;;;8.90;2.17;;;;;;;6.98;100.00;101013.94;4754114;30;20134;-82
2024/04/24 06:46:32;;;;;;;9.90;2.65;;;;;;;7.03;100.00;101019.72;4784838;29;20039;-83
2024/04/24 06:48:58;;;;;;;7.25;2.03;;;;;;;7.03;100.00;101007.44;4768243;30;20043;-85
2024/04/24 06:51:24;;;;;;;10.15;2.03;;;;;;;7.05;100.00;100996.81;4767582;30;20050;-84
2024/04/24 06:53:49;;;;;;;5.70;2.28;;;;;;;7.12;100.00;101007.75;4742690;30;20050;-87
2024/04/24 06:56:15;;;;;;;9.20;3.10;;;;;;;7.17;100.00;101008.25;4783428;30;20043;-87
2024/04/24 06:58:41;;;;;;;8.52;2.08;;;;;;;7.27;100.00;101005.81;4755772;30;20065;-84
2024/04/24 07:01:07;;;;;;;11.73;2.05;;;;;;;7.36;100.00;100999.88;4757526;30;20047;-84
2024/04/24 07:03:32;;;;;;;8.80;1.85;;;;;;;7.47;100.00;101001.75;4764518;30;20051;-84
2024/04/24 07:05:58;;;;;;;11.20;2.72;;;;;;;7.55;100.00;101003.81;4753503;30;20043;-81
2024/04/24 07:08:24;;;;;;;13.55;3.15;;;;;;;7.61;100.00;100995.53;4780253;30;20071;-80
2024/04/24 07:10:51;;;;;;;12.00;2.53;;;;;;;7.82;100.00;101000.13;4774725;30;20637;-90
2024/04/24 07:13:17;;;;;;;7.18;1.88;;;;;;;8.03;100.00;101002.16;4787867;29;20680;-87
2024/04/24 07:15:43;;;;;;;11.05;2.28;;;;;;;8.15;100.00;100997.78;4756548;30;20143;-86
2024/04/24 07:18:09;;;;;;;13.18;2.95;;;;;;;8.28;100.00;100997.69;4771617;29;20074;-88
2024/04/24 07:20:35;;;;;;;11.40;2.13;;;;;;;8.45;100.00;100991.16;4770920;30;20046;-86
2024/04/24 07:23:01;;;;;;;9.20;1.92;;;;;;;8.50;100.00;100986.38;4778105;30;20437;-87
2024/04/24 07:25:27;;;;;;;9.10;1.73;;;;;;;8.63;100.00;100986.28;4786323;29;20057;-86
2024/04/24 07:27:52;;;;;;;9.63;2.95;;;;;;;8.68;100.00;100984.13;4785090;30;20038;-81
2024/04/24 07:30:19;;;;;;;15.60;2.28;;;;;;;8.75;100.00;100981.03;4769980;30;20039;-82
2024/04/24 07:32:44;;;;;;;13.38;2.20;;;;;;;8.77;100.00;100985.25;4773099;30;20031;-89
2024/04/24 07:35:10;;;;;;;12.98;2.00;;;;;;;8.78;100.00;100984.28;4759279;30;20054;-85
2024/04/24 07:37:36;;;;;;;17.98;2.22;;;;;;;8.80;100.00;100981.50;4772765;30;20511;-90
2024/04/24 07:40:02;;;;;;;17.77;3.10;;;;;;;8.89;100.00;100987.84;4771810;30;20059;-89
2024/04/24 07:42:28;;;;;;;10.38;2.40;;;;;;;8.92;100.00;100984.97;4754174;30;20051;-85
2024/04/24 07:44:54;;;;;;;6.53;1.58;;;;;;;8.97;100.00;100977.56;4765923;30;20085;-80
2024/04/24 07:47:20;;;;;;;12.73;2.33;;;;;;;8.96;100.00;100970.63;4752990;30;20039;-88
2024/04/24 07:49:46;;;;;;;9.98;1.98;;;;;;;8.86;100.00;100965.22;4779303;29;20039;-82
2024/04/24 07:52:12;;;;;;;9.68;2.10;;;;;;;8.78;100.00;100976.38;4779884;30;20042;-80
2024/04/24 07:54:37;;;;;;;8.77;2.13;;;;;;;8.73;100.00;100965.34;4751673;30;20043;-82
2024/04/24 07:57:05;;;;;;;15.65;2.67;;;;;;;8.72;100.00;100963.66;4756488;29;20043;-84
2024/04/24 07:59:31;;;;;;;9.95;2.90;;;;;;;8.73;100.00;100964.50;4754954;30;20043;-88
2024/04/24 08:01:57;;;;;;;9.85;2.25;;;;;;;8.77;100.00;100964.16;4766112;30;20085;-82
2024/04/24 08:04:23;;;;;;;4.10;1.42;;;;;;;8.78;100.00;100963.19;4780613;30;20051;-86
2024/04/24 08:06:49;;;;;;;9.32;2.63;;;;;;;8.64;100.00;100963.41;4739473;30;20047;-82
2024/04/24 08:09:15;;;;;;;10.00;2.13;;;;;;;8.64;100.00;100969.53;4781114;30;20073;-82
2024/04/24 08:11:40;;;;;;;11.05;2.53;;;;;;;8.66;100.00;100958.88;4765531;30;20043;-83
2024/04/24 08:14:07;;;;;;;15.43;1.90;;;;;;;8.71;100.00;100962.00;4766044;30;20052;-87
2024/04/24 08:16:33;;;;;;;8.90;2.38;;;;;;;8.72;100.00;100960.19;4799275;29;20043;-84
2024/04/24 08:18:59;;;;;;;8.52;1.98;;;;;;;8.65;100.00;100962.44;4766514;30;20697;-83
2024/04/24 08:21:26;;;;;;;13.55;2.83;;;;;;;8.65;100.00;100960.66;4753644;30;20043;-84
2024/04/24 08:23:53;;;;;;;5.72;1.02;;;;;;;8.70;100.00;100962.94;4782220;30;20054;-83
2024/04/24 08:26:20;;;;;;;19.10;2.55;;;;;;;8.80;100.00;100955.16;4769591;30;20500;-82
2024/04/24 08:28:45;;;;;;;14.25;2.20;;;;;;;8.85;100.00;100962.69;4752089;30;20116;-89
2024/04/24 08:31:12;;;;;;;9.20;2.00;;;;;;;8.82;100.00;100963.78;4760287;30;20039;-83
2024/04/24 08:33:37;;;;;;;10.68;2.22;;;;;;;8.78;100.00;100957.91;4753327;30;20081;-83
2024/04/24 08:36:05;;;;;;;14.27;2.58;;;;;;;8.75;100.00;100958.16;4753917;30;20151;-81
2024/04/24 08:38:32;;;;;;;10.60;1.92;;;;;;;8.96;100.00;100954.78;4736172;30;20499;-83
2024/04/24 08:41:09;;;;;;;13.15;2.22;;;;;;;8.98;100.00;100952.03;4768141;30;20039;-82
2024/04/24 08:43:37;;;;;;;11.70;2.28;;;;;;;8.86;100.00;100952.03;4757400;30;20070;-88
2024/04/24 08:46:04;;;;;;;7.05;1.77;;;;;;;8.84;100.00;100943.41;4753023;30;20518;-83
2024/04/24 08:48:30;;;;;;;10.18;2.10;;;;;;;8.69;100.00;100942.81;4780489;29;20496;-85
2024/04/24 08:51:01;;;;;;;15.00;3.13;;;;;;;8.70;100.00;100933.94;4779307;29;20039;-83
2024/04/24 08:53:32;;;;;;;12.55;2.40;;;;;;;8.84;100.00;100932.03;4751923;30;20113;-82
2024/04/24 08:56:00;;;;;;;12.43;2.20;;;;;;;8.86;100.00;100922.19;4752872;30;20216;-85
2024/04/24 08:58:31;;;;;;;9.15;1.80;;;;;;;8.86;100.00;100932.72;4759845;30;20048;-81
2024/04/24 09:01:03;;;;;;;8.50;2.20;;;;;;;8.96;100.00;100928.44;4782670;30;20046;-81
2024/04/24 09:03:39;;;;;;;13.32;2.05;;;;;;;9.27;100.00;100931.25;4765485;30;20035;-83
2024/04/24 09:06:08;;;;;;;10.75;1.63;;;;;;;9.52;100.00;100917.88;4750562;30;20462;-80
2024/04/24 09:08:35;;;;;;;4.78;1.70;;;;;;;9.58;100.00;100920.00;4782498;30;20039;-84
2024/04/24 09:11:01;;;;;;;14.20;2.35;;;;;;;9.44;100.00;100915.84;4783611;29;20042;-79
2024/04/24 09:13:28;;;;;;;11.73;2.58;;;;;;;9.54;100.00;100918.56;4751823;29;20047;-81
2024/04/24 09:15:57;;;;;;;13.18;2.40;;;;;;;9.59;100.00;100916.38;4781275;30;20035;-86
2024/04/24 09:18:23;;;;;;;8.95;2.30;;;;;;;9.73;100.00;100920.53;4749634;30;20058;-87
2024/04/24 09:20:50;;;;;;;9.13;1.73;;;;;;;9.80;100.00;100918.22;4781846;30;20498;-83
2024/04/24 09:23:21;;;;;;;10.45;2.15;;;;;;;9.74;100.00;100919.56;4762273;30;20073;-85
2024/04/24 09:25:47;;;;;;;11.77;2.40;;;;;;;9.72;100.00;100920.66;4754047;30;20104;-82
2024/04/24 09:28:14;;;;;;;7.20;1.83;;;;;;;9.88;100.00;100917.56;4780576;29;20079;-83
2024/04/24 09:30:40;;;;;;;7.85;1.80;;;;;;;9.86;100.00;100915.06;4775115;29;20043;-80
2024/04/24 09:33:06;;;;;;;11.20;2.38;;;;;;;9.72;100.00;100915.38;4768177;30;20043;-84
2024/04/24 09:35:32;;;;;;;8.23;2.28;;;;;;;9.45;100.00;100920.16;4779934;30;20040;-85
2024/04/24 09:37:58;;;;;;;10.40;1.98;;;;;;;9.26;100.00;100921.66;4775809;30;20094;-88
2024/04/24 09:40:27;;;;;;;5.85;1.83;;;;;;;9.25;100.00;100922.59;4764906;30;20059;-83
2024/04/24 09:42:54;;;;;;;12.90;2.30;;;;;;;9.18;100.00;100929.34;4754604;29;20054;-81
2024/04/24 09:45:21;;;;;;;23.20;4.93;;;;;;;9.25;100.00;100914.69;4766134;30;20493;-81
2024/04/24 09:47:47;;;;;;;13.30;2.15;;;;;;;9.44;100.00;100910.56;4752076;30;20043;-81
2024/04/24 09:50:13;;;;;;;10.05;2.47;;;;;;;9.62;100.00;100902.13;4750921;30;20039;-82
2024/04/24 09:52:43;;;;;;;12.82;2.15;;;;;;;9.79;100.00;100904.16;4766537;30;20043;-81
2024/04/24 09:55:09;;;;;;;14.32;2.40;;;;;;;9.74;100.00;100900.25;4751578;30;20516;-82
2024/04/24 09:57:38;;;;;;;14.43;2.40;;;;;;;9.62;100.00;100891.56;4754491;29;20039;-85
2024/04/24 10:00:05;;;;;;;8.27;1.65;;;;;;;9.58;100.00;100887.47;4778512;30;20151;-85
2024/04/24 10:02:42;;;;;;;9.98;2.00;;;;;;;9.67;100.00;100878.78;4777186;30;20501;-85
2024/04/24 10:05:11;;;;;;;5.75;1.63;;;;;;;9.80;100.00;100878.63;4778381;30;20071;-84
2024/04/24 10:07:42;;;;;;;12.60;2.42;;;;;;;9.96;100.00;100872.88;4760801;30;20229;-83
2024/04/24 10:10:12;;;;;;;15.70;2.35;;;;;;;10.02;100.00;100871.53;4794264;29;20050;-84
2024/04/24 10:12:42;;;;;;;12.95;2.35;;;;;;;10.07;100.00;100864.06;4753564;29;20649;-83
2024/04/24 10:15:10;;;;;;;11.63;2.00;;;;;;;10.17;100.00;100864.09;4781360;29;20047;-83
2024/04/24 10:17:37;;;;;;;15.93;2.08;;;;;;;10.25;100.00;100861.66;4752987;30;20130;-79
2024/04/24 10:20:04;;;;;;;13.40;1.88;;;;;;;10.33;100.00;100857.50;4770499;30;20093;-80
2024/04/24 10:22:32;;;;;;;10.02;2.67;;;;;;;10.58;100.00;100855.38;4755772;29;20039;-83
2024/04/24 10:25:01;;;;;;;9.82;1.83;;;;;;;10.65;100.00;100851.25;4777417;30;20043;-83
2024/04/24 10:27:27;;;;;;;6.60;1.45;;;;;;;10.51;100.00;100850.63;4780612;30;20153;-79
2024/04/24 10:29:54;;;;;;;5.75;1.75;;;;;;;10.37;100.00;100854.47;4770578;30;20078;-81
2024/04/24 10:32:24;;;;;;;15.18;2.47;;;;;;;10.23;100.00;100852.16;4770320;29;20069;-82
2024/04/24 10:34:50;;;;;;;8.82;1.77;;;;;;;10.16;100.00;100851.88;4753537;30;20039;-82
2024/04/24 10:37:16;;;;;;;14.32;2.25;;;;;;;10.27;100.00;100851.78;4768102;30;20051;-83
2024/04/24 10:39:46;;;;;;;13.48;2.67;;;;;;;10.54;100.00;100850.38;4765357;30;20050;-83
2024/04/24 10:42:12;;;;;;;12.80;2.15;;;;;;;10.74;100.00;100841.66;4772499;30;20043;-87
2024/04/24 10:44:39;;;;;;;9.50;1.58;;;;;;;11.03;100.00;100838.25;4787522;29;20066;-82
2024/04/24 10:47:06;;;;;;;11.50;2.10;;;;;;;11.01;100.00;100841.03;4753389;30;20055;-83
2024/04/24 10:49:32;;;;;;;11.50;1.88;;;;;;;10.93;100.00;100832.94;4758669;29;20095;-80
2024/04/24 10:51:57;;;;;;;14.23;1.98;;;;;;;10.96;100.00;100826.56;4755158;30;20043;-80
2024/04/24 10:54:32;;;;;;;14.90;2.75;;;;;;;11.20;100.00;100823.50;4766798;30;20098;-82
2024/04/24 10:56:58;;;;;;;9.50;1.88;;;;;;;11.38;100.00;100814.84;4770179;29;20023;-81
2024/04/24 10:59:31;;;;;;;7.50;1.50;;;;;;;11.61;100.00;100815.38;4755754;29;20046;-83
2024/04/24 11:02:10;;;;;;;9.43;2.10;;;;;;;11.40;98.68;100815.56;4780599;30;20186;-80
2024/04/24 11:04:37;;;;;;;11.10;2.15;;;;;;;11.04;99.59;100813.47;4782610;30;20039;-81
2024/04/24 11:07:16;;;;;;;11.35;1.80;;;;;;;10.99;100.00;100805.94;4780800;29;20039;-93
2024/04/24 11:09:45;;;;;;;8.05;1.73;;;;;;;11.11;100.00;100795.22;4758948;30;20089;-95
2024/04/24 11:12:11;;;;;;;8.80;1.55;;;;;;;11.24;100.00;100806.38;4750821;29;20055;-92
2024/04/24 11:14:40;;;;;;;12.13;1.88;;;;;;;11.23;100.00;100799.41;4787540;30;20043;-91
2024/04/24 11:17:06;;;;;;;13.75;2.20;;;;;;;11.09;100.00;100802.47;4778596;30;20712;-91
2024/04/24 11:19:33;;;;;;;9.27;1.67;;;;;;;11.02;99.39;100804.84;4751645;30;20043;-90
2024/04/24 11:22:02;;;;;;;8.38;1.40;;;;;;;11.04;100.00;100793.13;4755816;30;20039;-90
2024/04/24 11:24:32;;;;;;;9.25;2.22;;;;;;;11.31;100.00;100792.59;4764212;29;20031;-91
2024/04/24 11:27:05;;;;;;;10.85;1.60;;;;;;;11.52;95.95;100790.59;4775313;29;20047;-94
2024/04/24 11:29:40;;;;;;;8.60;1.63;;;;;;;11.51;95.60;100790.75;4785063;30;20502;-92
2024/04/24 11:32:07;;;;;;;10.30;1.93;;;;;;;11.47;95.02;100784.03;4782636;30;20085;-89
2024/04/24 11:34:33;;;;;;;10.35;1.70;;;;;;;11.54;94.33;100786.00;4772089;30;20463;-90
2024/04/24 11:36:59;;;;;;;8.07;2.42;;;;;;;11.62;95.04;100766.75;4743175;30;20074;-92
2024/04/24 11:39:25;;;;;;;7.18;2.40;;;;;;;11.96;96.29;100775.16;4778995;30;20165;-90
2024/04/24 11:41:54;;;;;;;9.60;1.98;;;;;;;11.99;92.85;100766.91;4773259;30;20039;-93
2024/04/24 11:44:20;;;;;;;10.68;2.10;;;;;;;11.96;94.29;100765.38;4784337;29;20039;-92